createdAt,value
2018-10-21T00:00:52.101Z,0.00
2018-10-21T00:01:52.061Z,0.00
2018-10-21T00:02:52.048Z,0.00
2018-10-21T00:03:52.042Z,0.00
2018-10-21T00:04:52.046Z,0.00
2018-10-21T00:05:52.017Z,0.00
2018-10-21T00:06:52.032Z,0.00
2018-10-21T00:07:52.047Z,0.00
2018-10-21T00:08:51.983Z,0.00
2018-10-21T00:09:52.077Z,0.00
2018-10-21T00:10:51.957Z,0.00
2018-10-21T00:11:51.978Z,0.00
2018-10-21T00:12:51.938Z,0.00
2018-10-21T00:13:51.927Z,0.00
2018-10-21T00:14:51.928Z,0.00
2018-10-21T00:15:51.910Z,0.00
2018-10-21T00:16:51.921Z,0.00
2018-10-21T00:17:51.888Z,0.00
2018-10-21T00:18:51.871Z,0.00
2018-10-21T00:19:51.863Z,0.00
2018-10-21T00:20:51.881Z,0.00
2018-10-21T00:21:51.839Z,0.00
2018-10-21T00:22:51.836Z,0.00
2018-10-21T00:23:51.816Z,0.00
2018-10-21T00:24:51.800Z,0.00
2018-10-21T00:25:51.874Z,0.00
2018-10-21T00:26:51.766Z,0.00
2018-10-21T00:27:51.769Z,0.00
2018-10-21T00:28:51.748Z,0.00
2018-10-21T00:29:51.818Z,0.00
2018-10-21T00:30:51.776Z,0.00
2018-10-21T00:31:51.723Z,0.00
2018-10-21T00:32:51.718Z,0.00
2018-10-21T00:33:51.709Z,0.00
2018-10-21T00:34:51.691Z,0.00
2018-10-21T00:35:51.697Z,0.00
2018-10-21T00:36:51.698Z,0.00
2018-10-21T00:37:51.657Z,0.00
2018-10-21T00:38:51.647Z,0.00
2018-10-21T00:39:51.663Z,0.00
2018-10-21T00:40:51.650Z,0.00
2018-10-21T00:41:51.641Z,0.00
2018-10-21T00:42:51.625Z,0.00
2018-10-21T00:43:51.597Z,0.00
2018-10-21T00:44:51.593Z,0.00
2018-10-21T00:45:51.585Z,0.00
2018-10-21T00:46:51.604Z,0.00
2018-10-21T00:47:51.566Z,0.00
2018-10-21T00:48:51.542Z,0.00
2018-10-21T00:49:51.567Z,0.00
2018-10-21T00:50:51.519Z,0.00
2018-10-21T00:51:51.533Z,0.00
2018-10-21T00:52:51.494Z,0.00
2018-10-21T00:53:51.502Z,0.00
2018-10-21T00:54:51.487Z,0.00
2018-10-21T00:55:51.482Z,0.00
2018-10-21T00:56:51.446Z,0.00
2018-10-21T00:57:51.438Z,0.00
2018-10-21T00:58:51.432Z,0.00
2018-10-21T00:59:51.417Z,0.00
2018-10-21T01:00:51.453Z,0.00
2018-10-21T01:01:51.397Z,0.00
2018-10-21T01:02:51.379Z,0.00
2018-10-21T01:03:51.390Z,0.00
2018-10-21T01:04:51.379Z,0.00
2018-10-21T01:05:51.442Z,0.00
2018-10-21T01:06:51.337Z,0.00
2018-10-21T01:07:51.338Z,0.00
2018-10-21T01:08:51.315Z,0.00
2018-10-21T01:09:51.299Z,0.00
2018-10-21T01:10:51.324Z,0.00
2018-10-21T01:11:51.284Z,0.00
2018-10-21T01:12:51.269Z,0.00
2018-10-21T01:13:51.262Z,0.00
2018-10-21T01:14:51.255Z,0.00
2018-10-21T01:15:51.277Z,0.00
2018-10-21T01:16:51.253Z,0.00
2018-10-21T01:17:51.239Z,0.00
2018-10-21T01:18:51.237Z,0.00
2018-10-21T01:19:51.232Z,0.00
2018-10-21T01:20:51.182Z,0.00
2018-10-21T01:21:51.169Z,0.00
2018-10-21T01:22:51.162Z,0.00
2018-10-21T01:23:51.178Z,0.00
2018-10-21T01:24:51.139Z,0.00
2018-10-21T01:25:51.124Z,0.00
2018-10-21T01:26:51.122Z,0.00
2018-10-21T01:27:51.121Z,0.00
2018-10-21T01:28:51.116Z,0.00
2018-10-21T01:29:51.105Z,0.00
2018-10-21T01:30:51.071Z,0.00
2018-10-21T01:31:51.059Z,0.00
2018-10-21T01:32:51.049Z,0.00
2018-10-21T01:33:51.064Z,0.00
2018-10-21T01:34:51.046Z,0.00
2018-10-21T01:35:51.016Z,0.00
2018-10-21T01:36:51.081Z,0.00
2018-10-21T01:37:51.035Z,0.00
2018-10-21T01:38:51.032Z,0.00
2018-10-21T01:39:50.970Z,0.00
2018-10-21T01:40:50.960Z,0.00
2018-10-21T01:41:50.971Z,0.00
2018-10-21T01:42:50.933Z,0.00
2018-10-21T01:43:50.957Z,0.00
2018-10-21T01:44:50.913Z,0.00
2018-10-21T01:45:50.910Z,0.00
2018-10-21T01:46:50.895Z,0.00
2018-10-21T01:47:50.879Z,0.00
2018-10-21T01:48:50.885Z,0.00
2018-10-21T01:49:50.860Z,0.00
2018-10-21T01:50:50.858Z,0.00
2018-10-21T01:51:50.870Z,0.00
2018-10-21T01:52:50.832Z,0.00
2018-10-21T01:53:50.826Z,0.00
2018-10-21T01:54:50.802Z,0.00
2018-10-21T01:55:50.796Z,0.00
2018-10-21T01:56:50.797Z,0.00
2018-10-21T01:57:50.770Z,0.00
2018-10-21T01:58:50.801Z,0.00
2018-10-21T01:59:50.746Z,0.00
2018-10-21T02:00:50.740Z,0.00
2018-10-21T02:01:50.841Z,0.00
2018-10-21T02:02:50.740Z,0.00
2018-10-21T02:03:50.700Z,0.00
2018-10-21T02:04:50.694Z,0.00
2018-10-21T02:05:50.678Z,0.00
2018-10-21T02:06:50.720Z,0.00
2018-10-21T02:07:50.679Z,0.00
2018-10-21T02:08:50.665Z,0.00
2018-10-21T02:09:50.637Z,0.00
2018-10-21T02:10:50.634Z,0.00
2018-10-21T02:11:50.614Z,0.00
2018-10-21T02:12:50.660Z,0.00
2018-10-21T02:13:50.592Z,0.00
2018-10-21T02:14:50.567Z,0.00
2018-10-21T02:15:50.568Z,0.00
2018-10-21T02:16:50.569Z,0.00
2018-10-21T02:17:50.573Z,0.00
2018-10-21T02:18:50.538Z,0.00
2018-10-21T02:19:50.538Z,0.00
2018-10-21T02:20:50.511Z,0.00
2018-10-21T02:21:50.503Z,0.00
2018-10-21T02:22:50.522Z,0.00
2018-10-21T02:23:50.483Z,0.00
2018-10-21T02:24:50.464Z,0.00
2018-10-21T02:25:50.485Z,0.00
2018-10-21T02:26:50.536Z,0.00
2018-10-21T02:27:50.440Z,0.00
2018-10-21T02:28:50.428Z,0.00
2018-10-21T02:29:50.413Z,0.00
2018-10-21T02:30:50.429Z,0.00
2018-10-21T02:31:50.397Z,0.00
2018-10-21T02:32:50.381Z,0.00
2018-10-21T02:33:50.375Z,0.00
2018-10-21T02:34:50.383Z,0.00
2018-10-21T02:35:50.352Z,0.00
2018-10-21T02:36:50.339Z,0.00
2018-10-21T02:37:50.330Z,0.00
2018-10-21T02:38:50.344Z,0.00
2018-10-21T02:39:50.301Z,0.00
2018-10-21T02:40:50.301Z,0.00
2018-10-21T02:41:50.313Z,0.00
2018-10-21T02:42:50.292Z,0.00
2018-10-21T02:43:50.299Z,0.00
2018-10-21T02:44:50.247Z,0.00
2018-10-21T02:45:50.246Z,0.00
2018-10-21T02:46:50.224Z,0.00
2018-10-21T02:47:50.240Z,0.00
2018-10-21T02:48:50.203Z,0.00
2018-10-21T02:49:50.202Z,0.00
2018-10-21T02:50:50.220Z,0.00
2018-10-21T02:51:50.208Z,0.00
2018-10-21T02:52:50.159Z,0.00
2018-10-21T02:53:50.147Z,0.00
2018-10-21T02:54:50.137Z,0.00
2018-10-21T02:55:50.128Z,0.00
2018-10-21T02:56:50.138Z,0.00
2018-10-21T02:57:50.128Z,0.00
2018-10-21T02:58:50.115Z,0.00
2018-10-21T02:59:50.082Z,0.00
2018-10-21T03:00:50.067Z,0.00
2018-10-21T03:01:50.080Z,0.00
2018-10-21T03:02:50.047Z,0.00
2018-10-21T03:03:50.037Z,0.00
2018-10-21T03:04:50.021Z,0.00
2018-10-21T03:05:50.013Z,0.00
2018-10-21T03:06:50.026Z,0.00
2018-10-21T03:07:49.994Z,0.00
2018-10-21T03:08:49.983Z,0.00
2018-10-21T03:09:49.991Z,0.00
2018-10-21T03:10:49.963Z,0.00
2018-10-21T03:11:49.960Z,0.00
2018-10-21T03:12:49.936Z,0.00
2018-10-21T03:13:49.926Z,0.00
2018-10-21T03:14:49.924Z,0.00
2018-10-21T03:15:49.928Z,0.00
2018-10-21T03:16:49.918Z,0.00
2018-10-21T03:17:49.880Z,0.00
2018-10-21T03:18:49.871Z,0.00
2018-10-21T03:19:49.850Z,0.00
2018-10-21T03:20:49.848Z,0.00
2018-10-21T03:21:49.877Z,0.00
2018-10-21T03:22:49.825Z,0.00
2018-10-21T03:23:49.818Z,0.00
2018-10-21T03:24:49.803Z,0.00
2018-10-21T03:25:49.814Z,0.00
2018-10-21T03:26:49.824Z,0.00
2018-10-21T03:27:49.772Z,0.00
2018-10-21T03:28:49.754Z,0.00
2018-10-21T03:29:49.748Z,0.00
2018-10-21T03:30:49.727Z,0.00
2018-10-21T03:31:49.755Z,0.00
2018-10-21T03:32:49.772Z,0.00
2018-10-21T03:33:50.006Z,0.00
2018-10-21T03:34:49.680Z,0.00
2018-10-21T03:35:49.681Z,0.00
2018-10-21T03:36:49.672Z,0.00
2018-10-21T03:37:49.659Z,0.00
2018-10-21T03:38:49.680Z,0.00
2018-10-21T03:39:49.652Z,0.00
2018-10-21T03:40:49.626Z,0.00
2018-10-21T03:41:49.626Z,0.00
2018-10-21T03:42:49.632Z,0.00
2018-10-21T03:43:49.584Z,0.00
2018-10-21T03:44:49.586Z,0.00
2018-10-21T03:45:49.572Z,0.00
2018-10-21T03:46:49.598Z,0.00
2018-10-21T03:47:49.543Z,0.00
2018-10-21T03:48:49.585Z,0.00
2018-10-21T03:49:49.530Z,0.00
2018-10-21T03:50:49.509Z,0.00
2018-10-21T03:51:49.503Z,0.00
2018-10-21T03:52:49.518Z,0.00
2018-10-21T03:53:49.485Z,0.00
2018-10-21T03:54:49.490Z,0.00
2018-10-21T03:55:49.458Z,0.00
2018-10-21T03:56:49.454Z,0.00
2018-10-21T03:57:49.463Z,0.00
2018-10-21T03:58:49.426Z,0.00
2018-10-21T03:59:49.423Z,0.00
2018-10-21T04:00:49.429Z,0.00
2018-10-21T04:01:49.392Z,0.00
2018-10-21T04:02:49.399Z,0.00
2018-10-21T04:03:49.368Z,0.00
2018-10-21T04:04:49.380Z,0.00
2018-10-21T04:05:49.352Z,0.00
2018-10-21T04:06:49.339Z,0.00
2018-10-21T04:07:49.330Z,0.00
2018-10-21T04:08:49.331Z,0.00
2018-10-21T04:09:49.339Z,0.00
2018-10-21T04:10:49.298Z,0.00
2018-10-21T04:11:49.281Z,0.00
2018-10-21T04:12:49.278Z,0.00
2018-10-21T04:13:49.260Z,0.00
2018-10-21T04:14:49.286Z,0.00
2018-10-21T04:15:49.239Z,0.00
2018-10-21T04:16:49.253Z,0.00
2018-10-21T04:17:49.216Z,0.00
2018-10-21T04:18:49.217Z,0.00
2018-10-21T04:19:49.220Z,0.00
2018-10-21T04:20:49.198Z,0.00
2018-10-21T04:21:49.195Z,0.00
2018-10-21T04:22:49.166Z,0.00
2018-10-21T04:23:49.179Z,0.00
2018-10-21T04:24:49.230Z,0.00
2018-10-21T04:25:49.174Z,0.00
2018-10-21T04:26:49.161Z,0.00
2018-10-21T04:27:49.114Z,0.00
2018-10-21T04:28:49.121Z,0.00
2018-10-21T04:29:49.082Z,0.00
2018-10-21T04:30:49.071Z,0.00
2018-10-21T04:31:49.086Z,0.00
2018-10-21T04:32:49.048Z,0.00
2018-10-21T04:33:49.040Z,0.00
2018-10-21T04:34:49.036Z,0.00
2018-10-21T04:35:49.016Z,0.00
2018-10-21T04:36:49.052Z,0.00
2018-10-21T04:37:49.003Z,0.00
2018-10-21T04:38:48.986Z,0.00
2018-10-21T04:39:48.988Z,0.00
2018-10-21T04:40:48.961Z,0.00
2018-10-21T04:41:48.977Z,0.00
2018-10-21T04:42:48.939Z,0.00
2018-10-21T04:43:48.936Z,0.00
2018-10-21T04:44:48.916Z,0.00
2018-10-21T04:45:48.941Z,0.00
2018-10-21T04:46:49.025Z,0.00
2018-10-21T04:47:49.037Z,0.00
2018-10-21T04:48:48.911Z,0.00
2018-10-21T04:49:48.869Z,0.00
2018-10-21T04:50:48.879Z,0.00
2018-10-21T04:51:48.916Z,0.00
2018-10-21T04:52:48.857Z,0.00
2018-10-21T04:53:48.930Z,0.00
2018-10-21T04:54:48.818Z,0.00
2018-10-21T04:55:48.812Z,0.00
2018-10-21T04:56:48.818Z,0.00
2018-10-21T04:57:48.812Z,0.00
2018-10-21T04:58:48.769Z,0.00
2018-10-21T04:59:48.748Z,0.00
2018-10-21T05:00:48.839Z,0.00
2018-10-21T05:01:48.737Z,0.00
2018-10-21T05:02:48.741Z,0.00
2018-10-21T05:03:48.712Z,0.00
2018-10-21T05:04:48.707Z,0.00
2018-10-21T05:05:48.712Z,0.00
2018-10-21T05:06:48.682Z,0.00
2018-10-21T05:07:48.702Z,0.00
2018-10-21T05:08:48.649Z,0.00
2018-10-21T05:09:48.657Z,0.00
2018-10-21T05:10:48.634Z,0.00
2018-10-21T05:11:48.620Z,0.00
2018-10-21T05:12:48.648Z,0.00
2018-10-21T05:13:48.604Z,0.00
2018-10-21T05:14:48.603Z,0.00
2018-10-21T05:15:48.581Z,0.00
2018-10-21T05:16:48.577Z,0.00
2018-10-21T05:17:48.582Z,0.00
2018-10-21T05:18:48.567Z,0.00
2018-10-21T05:19:48.534Z,0.00
2018-10-21T05:20:48.535Z,0.00
2018-10-21T05:21:48.507Z,0.00
2018-10-21T05:22:48.515Z,0.00
2018-10-21T05:23:48.553Z,0.00
2018-10-21T05:24:48.474Z,0.00
2018-10-21T05:25:48.461Z,0.00
2018-10-21T05:26:48.502Z,0.00
2018-10-21T05:27:48.486Z,0.00
2018-10-21T05:28:48.435Z,0.00
2018-10-21T05:29:48.418Z,0.00
2018-10-21T05:30:48.406Z,0.00
2018-10-21T05:31:48.455Z,0.00
2018-10-21T05:32:48.389Z,0.00
2018-10-21T05:33:48.400Z,0.00
2018-10-21T05:34:48.369Z,0.00
2018-10-21T05:35:48.380Z,0.00
2018-10-21T05:36:48.342Z,0.00
2018-10-21T05:37:48.417Z,0.00
2018-10-21T05:38:48.340Z,0.00
2018-10-21T05:39:48.357Z,0.00
2018-10-21T05:40:48.387Z,0.00
2018-10-21T05:41:48.394Z,0.00
2018-10-21T05:42:48.305Z,0.00
2018-10-21T05:43:48.265Z,0.00
2018-10-21T05:44:48.260Z,0.00
2018-10-21T05:45:48.269Z,0.00
2018-10-21T05:46:48.385Z,0.00
2018-10-21T05:47:48.308Z,0.00
2018-10-21T05:48:48.226Z,0.00
2018-10-21T05:49:48.225Z,0.00
2018-10-21T05:50:48.184Z,0.00
2018-10-21T05:51:48.176Z,0.00
2018-10-21T05:52:48.173Z,0.00
2018-10-21T05:53:48.149Z,0.00
2018-10-21T05:54:48.163Z,0.00
2018-10-21T05:55:48.135Z,0.00
2018-10-21T05:56:48.130Z,0.00
2018-10-21T05:57:48.167Z,0.00
2018-10-21T05:58:48.118Z,0.00
2018-10-21T05:59:48.112Z,0.00
2018-10-21T06:00:48.081Z,0.00
2018-10-21T06:01:48.078Z,0.00
2018-10-21T06:02:48.067Z,0.00
2018-10-21T06:03:48.048Z,0.00
2018-10-21T06:04:48.049Z,0.00
2018-10-21T06:05:48.027Z,5.62
2018-10-21T06:06:48.019Z,5.62
2018-10-21T06:07:48.003Z,5.62
2018-10-21T06:08:48.017Z,5.62
2018-10-21T06:09:47.984Z,5.62
2018-10-21T06:10:48.007Z,5.62
2018-10-21T06:11:47.974Z,11.25
2018-10-21T06:12:47.957Z,11.25
2018-10-21T06:13:47.934Z,11.25
2018-10-21T06:14:47.920Z,11.25
2018-10-21T06:15:47.994Z,11.25
2018-10-21T06:16:47.899Z,11.25
2018-10-21T06:17:47.879Z,11.25
2018-10-21T06:18:47.878Z,16.88
2018-10-21T06:19:47.931Z,16.88
2018-10-21T06:20:47.866Z,16.88
2018-10-21T06:21:47.851Z,16.88
2018-10-21T06:22:47.857Z,22.50
2018-10-21T06:23:47.918Z,22.50
2018-10-21T06:24:47.815Z,22.50
2018-10-21T06:25:47.815Z,28.12
2018-10-21T06:26:47.793Z,28.12
2018-10-21T06:27:47.952Z,28.12
2018-10-21T06:28:47.767Z,33.75
2018-10-21T06:29:47.759Z,28.12
2018-10-21T06:30:47.743Z,28.12
2018-10-21T06:31:47.735Z,33.75
2018-10-21T06:32:47.748Z,33.75
2018-10-21T06:33:47.789Z,33.75
2018-10-21T06:34:47.730Z,33.75
2018-10-21T06:35:47.692Z,39.38
2018-10-21T06:36:47.837Z,39.38
2018-10-21T06:37:47.674Z,39.38
2018-10-21T06:38:47.657Z,45.00
2018-10-21T06:39:47.669Z,45.00
2018-10-21T06:40:47.660Z,45.00
2018-10-21T06:41:47.621Z,45.00
2018-10-21T06:42:47.629Z,50.62
2018-10-21T06:43:47.634Z,50.62
2018-10-21T06:44:47.592Z,50.62
2018-10-21T06:45:47.575Z,50.62
2018-10-21T06:46:47.570Z,50.62
2018-10-21T06:47:47.613Z,50.62
2018-10-21T06:48:47.551Z,50.62
2018-10-21T06:49:47.532Z,50.62
2018-10-21T06:50:47.565Z,50.62
2018-10-21T06:51:47.513Z,56.25
2018-10-21T06:52:47.498Z,56.25
2018-10-21T06:53:47.499Z,56.25
2018-10-21T06:54:47.479Z,56.25
2018-10-21T06:55:47.495Z,56.25
2018-10-21T06:56:47.636Z,56.25
2018-10-21T06:57:47.485Z,61.88
2018-10-21T06:58:47.435Z,61.88
2018-10-21T06:59:47.422Z,67.50
2018-10-21T07:00:47.435Z,67.50
2018-10-21T07:01:47.399Z,73.12
2018-10-21T07:02:47.394Z,73.12
2018-10-21T07:03:47.395Z,78.75
2018-10-21T07:04:47.386Z,78.75
2018-10-21T07:05:47.368Z,78.75
2018-10-21T07:06:47.348Z,78.75
2018-10-21T07:07:47.351Z,78.75
2018-10-21T07:08:47.381Z,78.75
2018-10-21T07:09:47.315Z,78.75
2018-10-21T07:10:47.330Z,78.75
2018-10-21T07:11:47.294Z,78.75
2018-10-21T07:12:47.270Z,78.75
2018-10-21T07:13:47.291Z,84.38
2018-10-21T07:14:47.261Z,84.38
2018-10-21T07:15:47.326Z,84.38
2018-10-21T07:16:47.405Z,78.75
2018-10-21T07:17:47.232Z,78.75
2018-10-21T07:18:47.230Z,78.75
2018-10-21T07:19:47.261Z,73.12
2018-10-21T07:20:47.215Z,73.12
2018-10-21T07:21:47.205Z,73.12
2018-10-21T07:22:47.169Z,73.12
2018-10-21T07:23:47.308Z,73.12
2018-10-21T07:24:47.972Z,73.12
2018-10-21T07:25:47.140Z,73.12
2018-10-21T07:26:47.154Z,73.12
2018-10-21T07:27:47.144Z,73.12
2018-10-21T07:28:47.129Z,78.75
2018-10-21T07:29:47.118Z,78.75
2018-10-21T07:30:47.150Z,78.75
2018-10-21T07:31:47.069Z,73.12
2018-10-21T07:32:47.062Z,73.12
2018-10-21T07:33:47.107Z,78.75
2018-10-21T07:34:47.037Z,78.75
2018-10-21T07:35:47.039Z,73.12
2018-10-21T07:36:47.045Z,78.75
2018-10-21T07:37:47.005Z,78.75
2018-10-21T07:38:46.982Z,73.12
2018-10-21T07:39:47.012Z,78.75
2018-10-21T07:40:47.002Z,78.75
2018-10-21T07:41:46.979Z,78.75
2018-10-21T07:42:46.944Z,78.75
2018-10-21T07:43:47.009Z,78.75
2018-10-21T07:44:46.939Z,78.75
2018-10-21T07:45:46.989Z,78.75
2018-10-21T07:46:46.915Z,78.75
2018-10-21T07:47:46.904Z,78.75
2018-10-21T07:48:46.877Z,78.75
2018-10-21T07:49:46.866Z,78.75
2018-10-21T07:50:46.890Z,78.75
2018-10-21T07:51:46.866Z,84.38
2018-10-21T07:52:46.825Z,90.00
2018-10-21T07:53:46.830Z,90.00
2018-10-21T07:54:46.827Z,90.00
2018-10-21T07:55:46.857Z,95.62
2018-10-21T07:56:46.812Z,95.62
2018-10-21T07:57:46.785Z,95.62
2018-10-21T07:58:46.808Z,95.62
2018-10-21T07:59:46.762Z,95.62
2018-10-21T08:00:46.779Z,101.25
2018-10-21T08:01:46.734Z,101.25
2018-10-21T08:02:46.728Z,106.88
2018-10-21T08:03:46.735Z,106.88
2018-10-21T08:04:46.737Z,112.50
2018-10-21T08:05:46.691Z,112.50
2018-10-21T08:06:46.676Z,112.50
2018-10-21T08:07:46.684Z,106.88
2018-10-21T08:08:46.729Z,112.50
2018-10-21T08:09:46.697Z,112.50
2018-10-21T08:10:46.634Z,112.50
2018-10-21T08:11:46.618Z,118.12
2018-10-21T08:12:46.621Z,112.50
2018-10-21T08:13:46.626Z,112.50
2018-10-21T08:14:46.732Z,112.50
2018-10-21T08:15:46.585Z,118.12
2018-10-21T08:16:46.562Z,112.50
2018-10-21T08:17:46.572Z,118.12
2018-10-21T08:18:46.544Z,118.12
2018-10-21T08:19:46.566Z,118.12
2018-10-21T08:20:46.520Z,118.12
2018-10-21T08:21:46.514Z,123.75
2018-10-21T08:22:46.520Z,123.75
2018-10-21T08:23:46.488Z,135.00
2018-10-21T08:24:46.502Z,129.38
2018-10-21T08:25:46.493Z,140.62
2018-10-21T08:26:46.470Z,146.25
2018-10-21T08:27:46.442Z,140.62
2018-10-21T08:28:48.127Z,146.25
2018-10-21T08:29:46.413Z,140.62
2018-10-21T08:30:46.508Z,135.00
2018-10-21T08:31:46.398Z,118.12
2018-10-21T08:32:46.458Z,123.75
2018-10-21T08:33:46.381Z,123.75
2018-10-21T08:34:46.364Z,123.75
2018-10-21T08:35:46.386Z,129.38
2018-10-21T08:36:46.355Z,135.00
2018-10-21T08:37:46.389Z,129.38
2018-10-21T08:38:46.336Z,129.38
2018-10-21T08:39:46.361Z,129.38
2018-10-21T08:40:46.299Z,135.00
2018-10-21T08:41:46.358Z,135.00
2018-10-21T08:42:46.269Z,129.38
2018-10-21T08:43:46.299Z,135.00
2018-10-21T08:44:46.264Z,129.38
2018-10-21T08:45:46.267Z,123.75
2018-10-21T08:46:46.341Z,123.75
2018-10-21T08:47:46.278Z,118.12
2018-10-21T08:48:46.264Z,118.12
2018-10-21T08:49:46.236Z,118.12
2018-10-21T08:50:46.215Z,118.12
2018-10-21T08:51:46.197Z,118.12
2018-10-21T08:52:46.183Z,118.12
2018-10-21T08:53:46.219Z,118.12
2018-10-21T08:54:46.139Z,118.12
2018-10-21T08:55:46.189Z,118.12
2018-10-21T08:56:46.144Z,112.50
2018-10-21T08:57:46.120Z,112.50
2018-10-21T08:58:46.114Z,112.50
2018-10-21T08:59:46.087Z,112.50
2018-10-21T09:00:46.081Z,118.12
2018-10-21T09:01:46.065Z,118.12
2018-10-21T09:02:46.084Z,118.12
2018-10-21T09:03:46.046Z,118.12
2018-10-21T09:04:46.033Z,123.75
2018-10-21T09:05:46.104Z,123.75
2018-10-21T09:06:46.009Z,123.75
2018-10-21T09:07:45.999Z,123.75
2018-10-21T09:08:45.992Z,123.75
2018-10-21T09:09:45.991Z,123.75
2018-10-21T09:10:46.115Z,123.75
2018-10-21T09:11:45.954Z,123.75
2018-10-21T09:12:45.943Z,123.75
2018-10-21T09:13:45.954Z,123.75
2018-10-21T09:14:45.915Z,123.75
2018-10-21T09:15:45.953Z,123.75
2018-10-21T09:16:45.962Z,123.75
2018-10-21T09:17:45.885Z,123.75
2018-10-21T09:18:45.880Z,123.75
2018-10-21T09:19:45.878Z,123.75
2018-10-21T09:20:45.890Z,123.75
2018-10-21T09:21:45.845Z,123.75
2018-10-21T09:22:45.846Z,123.75
2018-10-21T09:23:45.862Z,123.75
2018-10-21T09:24:45.811Z,123.75
2018-10-21T09:25:45.825Z,123.75
2018-10-21T09:26:45.801Z,123.75
2018-10-21T09:27:45.805Z,123.75
2018-10-21T09:28:45.789Z,123.75
2018-10-21T09:29:45.782Z,123.75
2018-10-21T09:30:45.763Z,129.38
2018-10-21T09:31:45.753Z,129.38
2018-10-21T09:32:45.721Z,129.38
2018-10-21T09:33:45.712Z,129.38
2018-10-21T09:34:45.724Z,129.38
2018-10-21T09:35:45.691Z,129.38
2018-10-21T09:36:45.691Z,129.38
2018-10-21T09:37:45.668Z,129.38
2018-10-21T09:38:45.679Z,135.00
2018-10-21T09:39:45.674Z,135.00
2018-10-21T09:40:45.630Z,135.00
2018-10-21T09:41:45.653Z,135.00
2018-10-21T09:42:45.611Z,135.00
2018-10-21T09:43:45.603Z,135.00
2018-10-21T09:44:45.612Z,135.00
2018-10-21T09:45:45.575Z,135.00
2018-10-21T09:46:45.601Z,140.62
2018-10-21T09:47:45.554Z,135.00
2018-10-21T09:48:45.545Z,140.62
2018-10-21T09:49:45.541Z,140.62
2018-10-21T09:50:45.531Z,140.62
2018-10-21T09:51:45.541Z,140.62
2018-10-21T09:52:45.503Z,140.62
2018-10-21T09:53:45.491Z,140.62
2018-10-21T09:54:45.475Z,140.62
2018-10-21T09:55:45.493Z,135.00
2018-10-21T09:56:45.487Z,135.00
2018-10-21T09:57:45.449Z,135.00
2018-10-21T09:58:45.500Z,135.00
2018-10-21T09:59:45.418Z,135.00
2018-10-21T10:00:45.412Z,135.00
2018-10-21T10:01:45.419Z,135.00
2018-10-21T10:02:45.385Z,135.00
2018-10-21T10:03:45.434Z,135.00
2018-10-21T10:04:45.366Z,135.00
2018-10-21T10:05:45.387Z,135.00
2018-10-21T10:06:45.375Z,135.00
2018-10-21T10:07:45.333Z,135.00
2018-10-21T10:08:45.346Z,140.62
2018-10-21T10:09:45.304Z,140.62
2018-10-21T10:10:45.294Z,140.62
2018-10-21T10:11:45.325Z,140.62
2018-10-21T10:12:45.301Z,140.62
2018-10-21T10:13:45.261Z,140.62
2018-10-21T10:14:45.253Z,135.00
2018-10-21T10:15:45.287Z,135.00
2018-10-21T10:16:45.233Z,135.00
2018-10-21T10:17:45.321Z,135.00
2018-10-21T10:18:45.223Z,135.00
2018-10-21T10:19:45.200Z,135.00
2018-10-21T10:20:45.211Z,135.00
2018-10-21T10:21:45.177Z,135.00
2018-10-21T10:22:45.198Z,135.00
2018-10-21T10:23:45.175Z,135.00
2018-10-21T10:24:45.177Z,135.00
2018-10-21T10:25:45.135Z,135.00
2018-10-21T10:26:45.127Z,135.00
2018-10-21T10:27:45.126Z,140.62
2018-10-21T10:28:45.106Z,140.62
2018-10-21T10:29:45.142Z,146.25
2018-10-21T10:30:45.080Z,146.25
2018-10-21T10:31:45.072Z,151.88
2018-10-21T10:32:45.086Z,151.88
2018-10-21T10:33:45.060Z,157.50
2018-10-21T10:34:45.114Z,157.50
2018-10-21T10:35:45.020Z,151.88
2018-10-21T10:36:45.022Z,151.88
2018-10-21T10:37:45.046Z,151.88
2018-10-21T10:38:44.999Z,146.25
2018-10-21T10:39:45.029Z,146.25
2018-10-21T10:40:44.983Z,151.88
2018-10-21T10:41:45.117Z,146.25
2018-10-21T10:42:44.949Z,146.25
2018-10-21T10:43:44.931Z,140.62
2018-10-21T10:44:44.917Z,140.62
2018-10-21T10:45:44.909Z,140.62
2018-10-21T10:46:44.902Z,140.62
2018-10-21T10:47:44.926Z,151.88
2018-10-21T10:48:44.878Z,191.25
2018-10-21T10:49:44.876Z,168.75
2018-10-21T10:50:44.858Z,213.75
2018-10-21T10:51:44.852Z,180.00
2018-10-21T10:52:44.875Z,168.75
2018-10-21T10:53:44.842Z,191.25
2018-10-21T10:54:45.264Z,196.88
2018-10-21T10:55:44.823Z,208.12
2018-10-21T10:56:44.786Z,196.88
2018-10-21T10:57:44.777Z,185.62
2018-10-21T10:58:44.761Z,185.62
2018-10-21T10:59:44.957Z,185.62
2018-10-21T11:00:44.744Z,196.88
2018-10-21T11:01:44.733Z,264.38
2018-10-21T11:02:44.708Z,219.38
2018-10-21T11:03:44.707Z,219.38
2018-10-21T11:04:44.729Z,196.88
2018-10-21T11:05:44.685Z,180.00
2018-10-21T11:06:44.675Z,185.62
2018-10-21T11:07:44.666Z,174.38
2018-10-21T11:08:44.654Z,180.00
2018-10-21T11:09:44.670Z,185.62
2018-10-21T11:10:44.630Z,213.75
2018-10-21T11:11:44.621Z,174.38
2018-10-21T11:12:44.611Z,174.38
2018-10-21T11:13:44.617Z,230.62
2018-10-21T11:14:44.634Z,185.62
2018-10-21T11:15:44.599Z,213.75
2018-10-21T11:16:44.565Z,196.88
2018-10-21T11:17:44.578Z,219.38
2018-10-21T11:18:44.565Z,196.88
2018-10-21T11:19:44.530Z,191.25
2018-10-21T11:20:44.539Z,196.88
2018-10-21T11:21:44.553Z,174.38
2018-10-21T11:22:44.587Z,174.38
2018-10-21T11:23:44.513Z,241.88
2018-10-21T11:24:44.482Z,180.00
2018-10-21T11:25:44.465Z,213.75
2018-10-21T11:26:44.467Z,202.50
2018-10-21T11:27:44.449Z,225.00
2018-10-21T11:28:44.466Z,180.00
2018-10-21T11:29:44.442Z,185.62
2018-10-21T11:30:44.412Z,185.62
2018-10-21T11:31:44.438Z,236.25
2018-10-21T11:32:44.418Z,236.25
2018-10-21T11:33:44.381Z,180.00
2018-10-21T11:34:44.387Z,180.00
2018-10-21T11:35:44.356Z,180.00
2018-10-21T11:36:44.481Z,168.75
2018-10-21T11:37:44.486Z,208.12
2018-10-21T11:38:44.346Z,180.00
2018-10-21T11:39:44.317Z,185.62
2018-10-21T11:40:44.365Z,213.75
2018-10-21T11:41:44.295Z,213.75
2018-10-21T11:42:44.301Z,213.75
2018-10-21T11:43:44.305Z,191.25
2018-10-21T11:44:44.257Z,208.12
2018-10-21T11:45:44.299Z,196.88
2018-10-21T11:46:44.232Z,151.88
2018-10-21T11:47:44.212Z,191.25
2018-10-21T11:48:44.251Z,202.50
2018-10-21T11:49:44.233Z,202.50
2018-10-21T11:50:44.186Z,196.88
2018-10-21T11:51:44.203Z,196.88
2018-10-21T11:52:44.239Z,185.62
2018-10-21T11:53:44.183Z,196.88
2018-10-21T11:54:44.143Z,191.25
2018-10-21T11:55:44.155Z,191.25
2018-10-21T11:56:44.122Z,202.50
2018-10-21T11:57:44.112Z,196.88
2018-10-21T11:58:44.121Z,196.88
2018-10-21T11:59:44.114Z,196.88
2018-10-21T12:00:44.093Z,196.88
2018-10-21T12:01:44.084Z,196.88
2018-10-21T12:02:44.060Z,196.88
2018-10-21T12:03:44.049Z,196.88
2018-10-21T12:04:44.112Z,191.25
2018-10-21T12:05:44.019Z,191.25
2018-10-21T12:06:44.135Z,191.25
2018-10-21T12:07:44.001Z,191.25
2018-10-21T12:08:44.011Z,196.88
2018-10-21T12:09:43.977Z,196.88
2018-10-21T12:10:43.973Z,196.88
2018-10-21T12:11:43.954Z,196.88
2018-10-21T12:12:43.938Z,196.88
2018-10-21T12:13:43.956Z,196.88
2018-10-21T12:14:43.922Z,196.88
2018-10-21T12:15:44.590Z,196.88
2018-10-21T12:16:43.899Z,196.88
2018-10-21T12:17:43.931Z,196.88
2018-10-21T12:18:44.094Z,202.50
2018-10-21T12:19:44.426Z,202.50
2018-10-21T12:20:43.876Z,202.50
2018-10-21T12:21:43.846Z,202.50
2018-10-21T12:22:43.883Z,196.88
2018-10-21T12:23:43.821Z,196.88
2018-10-21T12:24:43.856Z,196.88
2018-10-21T12:25:43.934Z,202.50
2018-10-21T12:26:43.796Z,202.50
2018-10-21T12:27:43.793Z,196.88
2018-10-21T12:28:43.786Z,196.88
2018-10-21T12:29:43.809Z,196.88
2018-10-21T12:30:43.761Z,196.88
2018-10-21T12:31:43.752Z,196.88
2018-10-21T12:32:43.724Z,191.25
2018-10-21T12:33:43.733Z,191.25
2018-10-21T12:34:43.741Z,185.62
2018-10-21T12:35:43.717Z,185.62
2018-10-21T12:36:43.718Z,185.62
2018-10-21T12:37:43.680Z,185.62
2018-10-21T12:38:43.690Z,185.62
2018-10-21T12:39:43.671Z,185.62
2018-10-21T12:40:43.683Z,185.62
2018-10-21T12:41:43.615Z,185.62
2018-10-21T12:42:43.631Z,185.62
2018-10-21T12:43:43.626Z,185.62
2018-10-21T12:44:43.611Z,185.62
2018-10-21T12:45:43.575Z,185.62
2018-10-21T12:46:43.595Z,180.00
2018-10-21T12:47:43.561Z,180.00
2018-10-21T12:48:43.530Z,180.00
2018-10-21T12:49:43.538Z,180.00
2018-10-21T12:50:43.522Z,174.38
2018-10-21T12:51:43.541Z,174.38
2018-10-21T12:52:43.497Z,174.38
2018-10-21T12:53:43.514Z,174.38
2018-10-21T12:54:43.495Z,174.38
2018-10-21T12:55:43.490Z,174.38